Map

Track Data

SID SEASON NUMBER BASIN SUBBASIN NAME ISO_TIME NATURE LAT LON WMO_WIND WMO_PRES WMO_AGENCY TRACK_TYPE DIST2LAND LANDFALL IFLAG USA_AGENCY USA_ATCF_ID USA_LAT USA_LON USA_RECORD USA_STATUS USA_WIND USA_PRES USA_SSHS USA_R34_NE USA_R34_SE USA_R34_SW USA_R34_NW USA_R50_NE USA_R50_SE USA_R50_SW USA_R50_NW USA_R64_NE USA_R64_SE USA_R64_SW USA_R64_NW USA_POCI USA_ROCI USA_RMW USA_EYE TOKYO_LAT TOKYO_LON TOKYO_GRADE TOKYO_WIND TOKYO_PRES TOKYO_R50_DIR TOKYO_R50_LONG TOKYO_R50_SHORT TOKYO_R30_DIR TOKYO_R30_LONG TOKYO_R30_SHORT TOKYO_LAND CMA_LAT CMA_LON CMA_CAT CMA_WIND CMA_PRES HKO_LAT HKO_LON HKO_CAT HKO_WIND HKO_PRES NEWDELHI_LAT NEWDELHI_LON NEWDELHI_GRADE NEWDELHI_WIND NEWDELHI_PRES NEWDELHI_CI NEWDELHI_DP NEWDELHI_POCI REUNION_LAT REUNION_LON REUNION_TYPE REUNION_WIND REUNION_PRES REUNION_TNUM REUNION_CI REUNION_RMW REUNION_R34_NE REUNION_R34_SE REUNION_R34_SW REUNION_R34_NW REUNION_R50_NE REUNION_R50_SE REUNION_R50_SW REUNION_R50_NW REUNION_R64_NE REUNION_R64_SE REUNION_R64_SW REUNION_R64_NW BOM_LAT BOM_LON BOM_TYPE BOM_WIND BOM_PRES BOM_TNUM BOM_CI BOM_RMW BOM_R34_NE BOM_R34_SE BOM_R34_SW BOM_R34_NW BOM_R50_NE BOM_R50_SE BOM_R50_SW BOM_R50_NW BOM_R64_NE BOM_R64_SE BOM_R64_SW BOM_R64_NW BOM_ROCI BOM_POCI BOM_EYE BOM_POS_METHOD BOM_PRES_METHOD NADI_LAT NADI_LON NADI_CAT NADI_WIND NADI_PRES WELLINGTON_LAT WELLINGTON_LON WELLINGTON_WIND WELLINGTON_PRES DS824_LAT DS824_LON DS824_STAGE DS824_WIND DS824_PRES TD9636_LAT TD9636_LON TD9636_STAGE TD9636_WIND TD9636_PRES TD9635_LAT TD9635_LON TD9635_WIND TD9635_PRES TD9635_ROCI NEUMANN_LAT NEUMANN_LON NEUMANN_CLASS NEUMANN_WIND NEUMANN_PRES MLC_LAT MLC_LON MLC_CLASS MLC_WIND MLC_PRES USA_GUST BOM_GUST BOM_GUST_PER REUNION_GUST REUNION_GUST_PER USA_SEAHGT USA_SEARAD_NE USA_SEARAD_SE USA_SEARAD_SW USA_SEARAD_NW STORM_SPEED STORM_DIR
1864112S09075 1864 7 SI MM NOT_NAMED 1864-04-21 06:00:00 NR -9.30000 75.3000 reunion main 1801 1801 _____O________ -1 -9.30000 75.3000 99 9.90000 6 245
1864112S09075 1864 7 SI MM NOT_NAMED 1864-04-21 09:00:00 NR -9.42134 75.0366 main 1823 1823 _____P________ -1 -9.42134 75.0366 99 6 245
1864112S09075 1864 7 SI MM NOT_NAMED 1864-04-21 12:00:00 NR -9.54411 74.7707 main 1840 1840 _____P________ -1 -9.54411 74.7707 99 6 245
1864112S09075 1864 7 SI MM NOT_NAMED 1864-04-21 15:00:00 NR -9.66990 74.5002 main 1873 1873 _____P________ -1 -9.66990 74.5002 99 6 245
1864112S09075 1864 7 SI MM NOT_NAMED 1864-04-21 18:00:00 NR -9.80032 74.2229 main 1895 1895 _____P________ -1 -9.80032 74.2229 99 6 244
1864112S09075 1864 7 SI MM NOT_NAMED 1864-04-21 21:00:00 NR -9.93696 73.9365 main 1917 1917 _____P________ -1 -9.93696 73.9365 99 6 244
1864112S09075 1864 7 SI MM NOT_NAMED 1864-04-22 00:00:00 NR -10.0814 73.6387 main 1950 1950 _____P________ -1 -10.0814 73.6387 99 7 244
1864112S09075 1864 7 SI MM NOT_NAMED 1864-04-22 03:00:00 NR -10.2352 73.3273 main 1974 1966 _____P________ -1 -10.2352 73.3273 99 7 243
1864112S09075 1864 7 SI MM NOT_NAMED 1864-04-22 06:00:00 NR -10.4000 73.0000 reunion main 1966 1926 _____O________ -1 -10.4000 73.0000 99 9.90000 7 243
1864112S09075 1864 7 SI MM NOT_NAMED 1864-04-22 09:00:00 NR -10.5769 72.6552 main 1926 1877 _____P________ -1 -10.5769 72.6552 99 8 242
1864112S09075 1864 7 SI MM NOT_NAMED 1864-04-22 12:00:00 NR -10.7655 72.2941 main 1877 1829 _____P________ -1 -10.7655 72.2941 99 8 242
1864112S09075 1864 7 SI MM NOT_NAMED 1864-04-22 15:00:00 NR -10.9651 71.9189 main 1829 1789 _____P________ -1 -10.9651 71.9189 99 9 241
1864112S09075 1864 7 SI MM NOT_NAMED 1864-04-22 18:00:00 NR -11.1748 71.5314 main 1780 1741 _____P________ -1 -11.1748 71.5314 99 9 241
1864112S09075 1864 7 SI MM NOT_NAMED 1864-04-22 21:00:00 NR -11.3939 71.1338 main 1732 1692 _____P________ -1 -11.3939 71.1338 99 9 240
1864112S09075 1864 7 SI MM NOT_NAMED 1864-04-23 00:00:00 NR -11.6216 70.7280 main 1683 1635 _____P________ -1 -11.6216 70.7280 99 9 240
1864112S09075 1864 7 SI MM NOT_NAMED 1864-04-23 03:00:00 NR -11.8572 70.3161 main 1628 1580 _____P________ -1 -11.8572 70.3161 99 9 239
1864112S09075 1864 7 SI MM NOT_NAMED 1864-04-23 06:00:00 NR -12.1000 69.9000 reunion main 1580 1532 _____O________ -1 -12.1000 69.9000 99 9.90000 10 239
1864112S09075 1864 7 SI MM NOT_NAMED 1864-04-23 09:00:00 NR -12.3497 69.4720 main 1532 1477 _____P________ -1 -12.3497 69.4720 99 10 239
1864112S09075 1864 7 SI MM NOT_NAMED 1864-04-23 12:00:00 NR -12.6087 69.0356 main 1468 1413 _____P________ -1 -12.6087 69.0356 99 10 239
1864112S09075 1864 7 SI MM NOT_NAMED 1864-04-23 15:00:00 NR -12.8741 68.5953 main 1413 1365 _____P________ -1 -12.8741 68.5953 99 10 238
1864112S09075 1864 7 SI MM NOT_NAMED 1864-04-23 18:00:00 NR -13.1430 68.1558 main 1365 1301 _____P________ -1 -13.1430 68.1558 99 10 238
1864112S09075 1864 7 SI MM NOT_NAMED 1864-04-23 21:00:00 NR -13.4128 67.7218 main 1301 1247 _____P________ -1 -13.4128 67.7218 99 10 237
1864112S09075 1864 7 SI MM NOT_NAMED 1864-04-24 00:00:00 NR -13.6807 67.2980 main 1247 1198 _____P________ -1 -13.6807 67.2980 99 10 237
1864112S09075 1864 7 SI MM NOT_NAMED 1864-04-24 03:00:00 NR -13.9440 66.8891 main 1198 1144 _____P________ -1 -13.9440 66.8891 99 9 236
1864112S09075 1864 7 SI MM NOT_NAMED 1864-04-24 06:00:00 NR -14.2000 66.5000 reunion main 1144 1104 _____O________ -1 -14.2000 66.5000 99 9.90000 9 236
1864112S09075 1864 7 SI MM NOT_NAMED 1864-04-24 09:00:00 NR -14.4266 66.1464 main 1096 1057 _____P________ -1 -14.4266 66.1464 99 8 236
1864112S09075 1864 7 SI MM NOT_NAMED 1864-04-24 12:00:00 NR -14.6456 65.8122 main 1057 1017 _____P________ -1 -14.6456 65.8122 99 8 235
1864112S09075 1864 7 SI MM NOT_NAMED 1864-04-24 15:00:00 NR -14.8607 65.4936 main 1011 971 _____P________ -1 -14.8607 65.4936 99 7 235
1864112S09075 1864 7 SI MM NOT_NAMED 1864-04-24 18:00:00 NR -15.0755 65.1869 main 971 932 _____P________ -1 -15.0755 65.1869 99 7 234
1864112S09075 1864 7 SI MM NOT_NAMED 1864-04-24 21:00:00 NR -15.2933 64.8881 main 932 893 _____P________ -1 -15.2933 64.8881 99 7 232
1864112S09075 1864 7 SI MM NOT_NAMED 1864-04-25 00:00:00 NR -15.5177 64.5933 main 893 854 _____P________ -1 -15.5177 64.5933 99 7 231
1864112S09075 1864 7 SI MM NOT_NAMED 1864-04-25 03:00:00 NR -15.7521 64.2986 main 847 808 _____P________ -1 -15.7521 64.2986 99 8 230
1864112S09075 1864 7 SI MM NOT_NAMED 1864-04-25 06:00:00 NR -16.0000 64.0000 reunion main 808 763 _____O________ -1 -16.0000 64.0000 99 9.90000 8 229
1864112S09075 1864 7 SI MM NOT_NAMED 1864-04-25 09:00:00 NR -16.2934 63.6482 main 754 708 _____P________ -1 -16.2934 63.6482 99 9 229
1864112S09075 1864 7 SI MM NOT_NAMED 1864-04-25 12:00:00 NR -16.6022 63.2903 main 708 663 _____P________ -1 -16.6022 63.2903 99 9 228
1864112S09075 1864 7 SI MM NOT_NAMED 1864-04-25 15:00:00 NR -16.9195 62.9330 main 654 609 _____P________ -1 -16.9195 62.9330 99 9 227
1864112S09075 1864 7 SI MM NOT_NAMED 1864-04-25 18:00:00 NR -17.2386 62.5832 main 609 564 _____P________ -1 -17.2386 62.5832 99 9 226
1864112S09075 1864 7 SI MM NOT_NAMED 1864-04-25 21:00:00 NR -17.5529 62.2479 main 549 520 _____P________ -1 -17.5529 62.2479 99 9 225
1864112S09075 1864 7 SI MM NOT_NAMED 1864-04-26 00:00:00 NR -17.8556 61.9341 main 505 476 _____P________ -1 -17.8556 61.9341 99 8 224
1864112S09075 1864 7 SI MM NOT_NAMED 1864-04-26 03:00:00 NR -18.1402 61.6491 main 466 432 _____P________ -1 -18.1402 61.6491 99 7 223
1864112S09075 1864 7 SI MM NOT_NAMED 1864-04-26 06:00:00 NR -18.4000 61.4000 reunion main 432 403 _____O________ -1 -18.4000 61.4000 99 9.90000 6 223
1864112S09075 1864 7 SI MM NOT_NAMED 1864-04-26 09:00:00 NR -18.5994 61.2031 main 403 384 _____P________ -1 -18.5994 61.2031 99 5 222
1864112S09075 1864 7 SI MM NOT_NAMED 1864-04-26 12:00:00 NR -18.7742 61.0421 main 374 360 _____P________ -1 -18.7742 61.0421 99 4 220
1864112S09075 1864 7 SI MM NOT_NAMED 1864-04-26 15:00:00 NR -18.9315 60.9111 main 360 341 _____P________ -1 -18.9315 60.9111 99 4 216
1864112S09075 1864 7 SI MM NOT_NAMED 1864-04-26 18:00:00 NR -19.0783 60.8043 main 341 327 _____P________ -1 -19.0783 60.8043 99 3 213
1864112S09075 1864 7 SI MM NOT_NAMED 1864-04-26 21:00:00 NR -19.2216 60.7158 main 327 309 _____P________ -1 -19.2216 60.7158 99 3 208
1864112S09075 1864 7 SI MM NOT_NAMED 1864-04-27 00:00:00 NR -19.3684 60.6395 main 309 306 _____P________ -1 -19.3684 60.6395 99 3 204
1864112S09075 1864 7 SI MM NOT_NAMED 1864-04-27 03:00:00 NR -19.5255 60.5696 main 306 289 _____P________ -1 -19.5255 60.5696 99 4 201
1864112S09075 1864 7 SI MM NOT_NAMED 1864-04-27 06:00:00 NR -19.7000 60.5000 reunion main 289 275 _____O________ -1 -19.7000 60.5000 99 9.90000 4 203
1864112S09075 1864 7 SI MM NOT_NAMED 1864-04-27 09:00:00 NR -19.9289 60.3882 main 275 261 _____P________ -1 -19.9289 60.3882 99 5 204
1864112S09075 1864 7 SI MM NOT_NAMED 1864-04-27 12:00:00 NR -20.1741 60.2788 main 261 250 _____P________ -1 -20.1741 60.2788 99 5 202
1864112S09075 1864 7 SI MM NOT_NAMED 1864-04-27 15:00:00 NR -20.4303 60.1739 main 250 240 _____P________ -1 -20.4303 60.1739 99 6 200
1864112S09075 1864 7 SI MM NOT_NAMED 1864-04-27 18:00:00 NR -20.6926 60.0760 main 243 235 _____P________ -1 -20.6926 60.0760 99 6 198
1864112S09075 1864 7 SI MM NOT_NAMED 1864-04-27 21:00:00 NR -20.9557 59.9873 main 241 236 _____P________ -1 -20.9557 59.9873 99 5 196
1864112S09075 1864 7 SI MM NOT_NAMED 1864-04-28 00:00:00 NR -21.2147 59.9101 main 240 240 _____P________ -1 -21.2147 59.9101 99 5 194
1864112S09075 1864 7 SI MM NOT_NAMED 1864-04-28 03:00:00 NR -21.4645 59.8469 main 244 244 _____P________ -1 -21.4645 59.8469 99 5 192
1864112S09075 1864 7 SI MM NOT_NAMED 1864-04-28 06:00:00 NR -21.7000 59.8000 reunion main 255 255 _____O________ -1 -21.7000 59.8000 99 9.90000 5 189
1864112S09075 1864 7 SI MM NOT_NAMED 1864-04-28 09:00:00 NR -21.9173 59.7711 main 268 268 _____P________ -1 -21.9173 59.7711 99 4 184
1864112S09075 1864 7 SI MM NOT_NAMED 1864-04-28 12:00:00 NR -22.1177 59.7586 main 281 281 _____P________ -1 -22.1177 59.7586 99 4 0
1864112S09075 1864 7 SI MM NOT_NAMED 1864-04-28 15:00:00 NR -22.3036 59.7603 main 296 296 _____P________ -1 -22.3036 59.7603 99 4 176
1864112S09075 1864 7 SI MM NOT_NAMED 1864-04-28 18:00:00 NR -22.4774 59.7739 main 311 311 _____P________ -1 -22.4774 59.7739 99 3 173
1864112S09075 1864 7 SI MM NOT_NAMED 1864-04-28 21:00:00 NR -22.6415 59.7970 main 319 319 _____P________ -1 -22.6415 59.7970 99 3 170
1864112S09075 1864 7 SI MM NOT_NAMED 1864-04-29 00:00:00 NR -22.7984 59.8273 main 336 336 _____P________ -1 -22.7984 59.8273 99 3 170
1864112S09075 1864 7 SI MM NOT_NAMED 1864-04-29 03:00:00 NR -22.9504 59.8624 main 360 360 _____P________ -1 -22.9504 59.8624 99 3 167
1864112S09075 1864 7 SI MM NOT_NAMED 1864-04-29 06:00:00 NR -23.1000 59.9000 reunion main 368 _____O________ -1 -23.1000 59.9000 99 9.90000 3 167

About IBTrACS Database

This database is a web-friendly format of International Best Track Archive for Climate Stewardship (IBTrACS), a global best track data archive curated by NOAA dating back to 1842.

Updated: 2021-12-01